Time;durP1;ratioP1;P1;durP2;ratioP2;P2;SDS_P1;SDS_P2;PMS_P1;PMS_P2;Temp;Humidity;BMP_temperature;BMP_pressure;BME280_temperature;BME280_humidity;BME280_pressure;Samples;Min_cycle;Max_cycle;Signal;HPM_P1;HPM_P2
2022/05/16 00:01:22;;;;;;;;;;;13.20;99.90;;;;;;5015128;28;19925;-67
2022/05/16 00:03:48;;;;;;;;;;;13.20;99.90;;;;;;5020050;28;20000;-67
2022/05/16 00:06:13;;;;;;;;;;;13.20;99.90;;;;;;5010600;28;20142;-66
2022/05/16 00:08:39;;;;;;;;;;;13.20;99.90;;;;;;5018273;28;20370;-67
2022/05/16 00:11:04;;;;;;;;;;;13.20;99.90;;;;;;5007934;28;19917;-67
2022/05/16 00:13:30;;;;;;;;;;;13.20;99.90;;;;;;5006063;28;19925;-67
2022/05/16 00:15:56;;;;;;;;;;;13.20;99.90;;;;;;4991064;28;19971;-67
2022/05/16 00:18:21;;;;;;;;;;;13.30;99.90;;;;;;5018702;28;20358;-67
2022/05/16 00:20:47;;;;;;;;;;;13.20;99.90;;;;;;5003455;28;20617;-67
2022/05/16 00:23:13;;;;;;;;;;;13.20;99.90;;;;;;5008307;28;20004;-66
2022/05/16 00:25:38;;;;;;;;;;;13.20;99.90;;;;;;5007888;28;20273;-67
2022/05/16 00:28:04;;;;;;;;;;;13.30;99.90;;;;;;5010339;28;20361;-66
2022/05/16 00:30:30;;;;;;;;;;;13.30;99.90;;;;;;5013209;28;19921;-66
2022/05/16 00:32:56;;;;;;;;;;;13.30;99.90;;;;;;5007904;28;19925;-66
2022/05/16 00:35:21;;;;;;;;;;;13.30;99.90;;;;;;5013231;28;19936;-66
2022/05/16 00:37:47;;;;;;;;;;;13.30;99.90;;;;;;5015242;28;19929;-65
2022/05/16 00:40:13;;;;;;;;;;;13.30;99.90;;;;;;4999584;28;20124;-66
2022/05/16 00:42:39;;;;;;;;;;;13.30;99.90;;;;;;5006310;28;19925;-66
2022/05/16 00:45:05;;;;;;;;;;;13.30;99.90;;;;;;5004750;28;19917;-66
2022/05/16 00:47:31;;;;;;;;;;;13.30;99.90;;;;;;5016858;28;20018;-66
2022/05/16 00:49:57;;;;;;;;;;;13.30;99.90;;;;;;5020827;28;20405;-66
2022/05/16 00:52:24;;;;;;;;;;;13.30;99.90;;;;;;5021352;28;19933;-66
2022/05/16 00:55:13;;;;;;;;;;;;;;;;;;;;;
2022/05/16 00:58:19;;;;;;;;;;;13.30;99.90;;;;;;5053629;28;20353;-89
2022/05/16 01:04:47;;;;;;;;;;;13.30;99.90;;;;;;5064224;28;20022;-87
2022/05/16 01:07:58;;;;;;;;;;;13.40;99.90;;;;;;5047272;28;20323;-90
2022/05/16 01:10:49;;;;;;;;;;;;;;;;;;;;;
2022/05/16 01:13:52;;;;;;;;;;;13.40;99.90;;;;;;5046543;28;19917;-90
2022/05/16 01:16:36;;;;;;;;;;;13.30;99.90;;;;;;5032084;28;19921;-88
2022/05/16 01:19:34;;;;;;;;;;;13.30;99.90;;;;;;5039196;28;19923;-90
2022/05/16 01:22:19;;;;;;;;;;;13.30;99.90;;;;;;5011211;28;19960;-91
2022/05/16 01:25:10;;;;;;;;;;;13.40;99.90;;;;;;5039358;28;19916;-90
2022/05/16 01:28:05;;;;;;;;;;;;;;;;;;;;;
2022/05/16 01:30:59;;;;;;;;;;;;;;;;;;;;;
2022/05/16 01:33:57;;;;;;;;;;;13.30;99.90;;;;;;5042379;28;19920;-88
2022/05/16 01:36:34;;;;;;;;;;;13.30;99.90;;;;;;5020279;28;20031;-89
2022/05/16 01:39:10;;;;;;;;;;;13.30;99.90;;;;;;5011511;28;19996;-86
2022/05/16 01:42:08;;;;;;;;;;;13.30;99.90;;;;;;5025457;28;20047;-88
2022/05/16 01:44:43;;;;;;;;;;;13.30;99.90;;;;;;4998118;28;19928;-89
2022/05/16 01:47:26;;;;;;;;;;;13.30;99.90;;;;;;5007875;28;20751;-87
2022/05/16 01:53:18;;;;;;;;;;;13.30;99.90;;;;;;4981539;28;19929;-90
2022/05/16 01:56:51;;;;;;;;;;;;;;;;;;;;;
2022/05/16 01:59:40;;;;;;;;;;;13.30;99.90;;;;;;5006794;28;19959;-89
2022/05/16 02:05:41;;;;;;;;;;;13.30;99.90;;;;;;5041750;28;19925;-89
2022/05/16 02:08:34;;;;;;;;;;;13.20;99.90;;;;;;5014891;28;20408;-90
2022/05/16 02:14:12;;;;;;;;;;;13.20;99.90;;;;;;4994937;28;19925;-89
2022/05/16 02:16:49;;;;;;;;;;;13.30;99.90;;;;;;5012387;28;19923;-88
2022/05/16 02:19:30;;;;;;;;;;;13.20;99.90;;;;;;5025387;28;20286;-88
2022/05/16 02:24:57;;;;;;;;;;;13.20;99.90;;;;;;5023213;28;19999;-89
2022/05/16 02:27:32;;;;;;;;;;;;;;;;;;;;;
2022/05/16 02:30:09;;;;;;;;;;;13.10;99.90;;;;;;5052165;28;19979;-88
2022/05/16 02:32:44;;;;;;;;;;;13.10;99.90;;;;;;5026279;28;19923;-88
2022/05/16 02:35:15;;;;;;;;;;;13.10;99.90;;;;;;5025309;28;19927;-88
2022/05/16 02:41:15;;;;;;;;;;;;;;;;;;;;;
2022/05/16 02:44:17;;;;;;;;;;;13.00;99.90;;;;;;5025585;28;19930;-87
2022/05/16 02:46:53;;;;;;;;;;;13.00;99.90;;;;;;5033113;28;20405;-88
2022/05/16 02:49:29;;;;;;;;;;;13.10;99.90;;;;;;5033315;28;19993;-89
2022/05/16 02:55:40;;;;;;;;;;;13.00;99.90;;;;;;5050313;28;19925;-87
2022/05/16 02:58:16;;;;;;;;;;;13.00;99.90;;;;;;5015862;28;20337;-90
2022/05/16 03:00:54;;;;;;;;;;;13.00;99.90;;;;;;5016279;28;19955;-87
2022/05/16 03:03:36;;;;;;;;;;;;;;;;;;;;;
2022/05/16 03:06:31;;;;;;;;;;;12.90;99.90;;;;;;5032157;28;19917;-89
2022/05/16 03:09:15;;;;;;;;;;;13.00;99.90;;;;;;5016344;28;19997;-89
2022/05/16 03:21:16;;;;;;;;;;;12.90;99.90;;;;;;5046197;28;20382;-89
2022/05/16 03:23:57;;;;;;;;;;;12.80;99.90;;;;;;5028791;28;20065;-89
2022/05/16 03:26:55;;;;;;;;;;;12.90;99.90;;;;;;5037950;28;20327;-88
2022/05/16 03:29:33;;;;;;;;;;;12.80;99.90;;;;;;4969078;28;19925;-89
2022/05/16 03:32:11;;;;;;;;;;;12.90;99.90;;;;;;5006167;28;19917;-89
2022/05/16 03:34:56;;;;;;;;;;;12.80;99.90;;;;;;5002437;28;19929;-89
2022/05/16 03:37:58;;;;;;;;;;;12.90;99.90;;;;;;5007575;28;19971;-87
2022/05/16 03:40:53;;;;;;;;;;;;;;;;;;;;;
2022/05/16 03:43:52;;;;;;;;;;;12.80;99.90;;;;;;5022776;28;19917;-88
2022/05/16 03:52:34;;;;;;;;;;;12.70;99.90;;;;;;5031395;28;19916;-86
2022/05/16 03:55:00;;;;;;;;;;;12.70;99.90;;;;;;5028469;23;19974;-67
2022/05/16 03:57:26;;;;;;;;;;;12.70;99.90;;;;;;5055623;28;19920;-68
2022/05/16 03:59:51;;;;;;;;;;;12.70;99.90;;;;;;5059337;28;19970;-67
2022/05/16 04:02:17;;;;;;;;;;;12.70;99.90;;;;;;5045726;28;20328;-67
2022/05/16 04:04:43;;;;;;;;;;;12.70;99.90;;;;;;5063083;28;19932;-67
2022/05/16 04:07:09;;;;;;;;;;;12.70;99.90;;;;;;5057222;28;19964;-67
2022/05/16 04:09:34;;;;;;;;;;;12.60;99.90;;;;;;5063202;28;19967;-67
2022/05/16 04:12:00;;;;;;;;;;;12.60;99.90;;;;;;5044480;28;19923;-68
2022/05/16 04:14:25;;;;;;;;;;;12.60;99.90;;;;;;5031798;28;19965;-68
2022/05/16 04:16:51;;;;;;;;;;;12.60;99.90;;;;;;5056272;28;20459;-67
2022/05/16 04:19:16;;;;;;;;;;;12.60;99.90;;;;;;5033451;28;20011;-67
2022/05/16 04:21:43;;;;;;;;;;;12.70;99.90;;;;;;5045493;28;19924;-68
2022/05/16 04:24:08;;;;;;;;;;;12.70;99.90;;;;;;5009550;28;19920;-67
2022/05/16 04:26:35;;;;;;;;;;;12.60;99.90;;;;;;5050826;28;19997;-67
2022/05/16 04:29:01;;;;;;;;;;;12.70;99.90;;;;;;5060032;28;19916;-68
2022/05/16 04:31:27;;;;;;;;;;;12.70;99.90;;;;;;5025526;28;20062;-68
2022/05/16 04:33:55;;;;;;;;;;;12.70;99.90;;;;;;5055106;28;20320;-67
2022/05/16 04:36:21;;;;;;;;;;;12.70;99.90;;;;;;5057543;28;19972;-67
2022/05/16 04:38:46;;;;;;;;;;;12.70;99.90;;;;;;5060380;28;19945;-68
2022/05/16 04:43:56;;;;;;;;;;;12.80;99.90;;;;;;5048159;28;19920;-69
2022/05/16 04:46:22;;;;;;;;;;;12.80;99.90;;;;;;5053993;28;20256;-68
2022/05/16 04:48:47;;;;;;;;;;;12.80;99.90;;;;;;5060350;28;19999;-68
2022/05/16 04:51:13;;;;;;;;;;;12.80;99.90;;;;;;5053572;28;19958;-68
2022/05/16 04:53:39;;;;;;;;;;;12.90;99.90;;;;;;5049485;28;20194;-68
2022/05/16 04:56:05;;;;;;;;;;;12.90;99.90;;;;;;5059209;28;19928;-68
2022/05/16 04:58:33;;;;;;;;;;;12.90;99.90;;;;;;5043520;28;19927;-68
2022/05/16 05:00:59;;;;;;;;;;;12.90;99.90;;;;;;5023142;28;20025;-68
2022/05/16 05:03:25;;;;;;;;;;;12.90;99.90;;;;;;5047169;28;19928;-68
2022/05/16 05:05:52;;;;;;;;;;;13.00;99.90;;;;;;5047498;28;20865;-69
2022/05/16 05:08:18;;;;;;;;;;;13.00;99.90;;;;;;5050514;28;19920;-68
2022/05/16 05:16:15;;;;;;;;;;;13.10;99.90;;;;;;5043242;28;19920;-68
2022/05/16 05:18:41;;;;;;;;;;;13.10;99.90;;;;;;5062154;28;19920;-68
2022/05/16 05:21:07;;;;;;;;;;;13.20;99.90;;;;;;5059650;28;19916;-68
2022/05/16 05:23:34;;;;;;;;;;;13.20;99.90;;;;;;5054283;28;19923;-68
2022/05/16 05:26:00;;;;;;;;;;;13.20;99.90;;;;;;5043562;28;19923;-69
2022/05/16 05:28:26;;;;;;;;;;;13.20;99.90;;;;;;5050196;28;19920;-69
2022/05/16 05:30:51;;;;;;;;;;;13.20;99.90;;;;;;5040870;28;19931;-67
2022/05/16 05:33:17;;;;;;;;;;;13.30;99.90;;;;;;5031479;28;19980;-67
2022/05/16 05:35:42;;;;;;;;;;;13.20;99.90;;;;;;5051792;28;20371;-72
2022/05/16 05:38:09;;;;;;;;;;;13.30;99.90;;;;;;5037786;28;20460;-74
2022/05/16 05:40:35;;;;;;;;;;;13.30;99.90;;;;;;5043584;28;20318;-70
2022/05/16 05:43:02;;;;;;;;;;;13.40;99.90;;;;;;5029311;28;19932;-67
2022/05/16 05:45:28;;;;;;;;;;;13.50;99.90;;;;;;5051800;28;19920;-68
2022/05/16 05:47:53;;;;;;;;;;;13.50;99.90;;;;;;5053998;28;19924;-68
2022/05/16 05:50:19;;;;;;;;;;;13.50;99.90;;;;;;5035833;28;19920;-67
2022/05/16 05:52:44;;;;;;;;;;;13.60;99.90;;;;;;5055611;28;19978;-67
2022/05/16 05:55:10;;;;;;;;;;;13.50;99.90;;;;;;5037984;28;20274;-68
2022/05/16 05:57:36;;;;;;;;;;;13.70;99.90;;;;;;5033690;28;20021;-68
2022/05/16 06:00:04;;;;;;;;;;;13.70;99.90;;;;;;5015056;28;20378;-67
2022/05/16 06:02:30;;;;;;;;;;;13.80;99.90;;;;;;5047552;28;20654;-67
2022/05/16 06:04:55;;;;;;;;;;;13.80;99.90;;;;;;5059002;28;20044;-68
2022/05/16 06:07:21;;;;;;;;;;;13.90;99.90;;;;;;5064984;28;20327;-68
2022/05/16 06:09:46;;;;;;;;;;;13.90;99.90;;;;;;5050159;28;19960;-71
2022/05/16 06:12:12;;;;;;;;;;;14.10;99.90;;;;;;5061710;28;20273;-69
2022/05/16 06:14:37;;;;;;;;;;;14.10;99.90;;;;;;5049193;28;19985;-66
2022/05/16 06:17:04;;;;;;;;;;;14.20;99.90;;;;;;5067267;28;19920;-67
2022/05/16 06:19:29;;;;;;;;;;;14.20;99.90;;;;;;5056876;28;20480;-67
2022/05/16 06:21:58;;;;;;;;;;;14.20;99.90;;;;;;5063386;28;19924;-67
2022/05/16 06:27:08;;;;;;;;;;;14.40;99.90;;;;;;5061457;28;20019;-68
2022/05/16 06:29:33;;;;;;;;;;;14.50;99.90;;;;;;5053284;28;20421;-67
2022/05/16 06:31:59;;;;;;;;;;;14.60;99.90;;;;;;5047560;28;19925;-67
2022/05/16 06:34:25;;;;;;;;;;;14.70;99.90;;;;;;5045333;28;19975;-67
2022/05/16 06:36:50;;;;;;;;;;;14.80;99.90;;;;;;5067216;28;19921;-67
2022/05/16 06:39:16;;;;;;;;;;;14.80;99.90;;;;;;5057415;28;19960;-67
2022/05/16 06:41:42;;;;;;;;;;;15.00;99.90;;;;;;5047123;28;19935;-69
2022/05/16 06:44:09;;;;;;;;;;;15.00;99.90;;;;;;5057619;28;19917;-67
2022/05/16 06:46:35;;;;;;;;;;;15.10;99.90;;;;;;5058150;28;19944;-67
2022/05/16 06:49:00;;;;;;;;;;;15.20;99.90;;;;;;5053497;28;20608;-67
2022/05/16 06:51:26;;;;;;;;;;;15.30;99.90;;;;;;5056401;28;20456;-66
2022/05/16 06:53:52;;;;;;;;;;;15.40;99.90;;;;;;5054443;28;20622;-67
2022/05/16 06:56:18;;;;;;;;;;;15.50;99.90;;;;;;5063759;22;19921;-66
2022/05/16 06:58:43;;;;;;;;;;;15.50;99.90;;;;;;5043196;28;19947;-66
2022/05/16 07:01:09;;;;;;;;;;;15.60;99.90;;;;;;5038838;28;19924;-66
2022/05/16 07:03:35;;;;;;;;;;;15.70;99.90;;;;;;5041903;28;19974;-67
2022/05/16 07:06:01;;;;;;;;;;;15.70;99.90;;;;;;5059220;28;20325;-67
2022/05/16 07:08:26;;;;;;;;;;;15.70;99.90;;;;;;5041300;28;19936;-67
2022/05/16 07:10:52;;;;;;;;;;;15.80;99.90;;;;;;5057918;28;19917;-67
2022/05/16 07:13:18;;;;;;;;;;;15.80;99.90;;;;;;5054356;28;19924;-67
2022/05/16 07:15:44;;;;;;;;;;;15.90;99.90;;;;;;5051895;28;20055;-67
2022/05/16 07:18:10;;;;;;;;;;;15.90;99.90;;;;;;5056266;28;20143;-67
2022/05/16 07:20:37;;;;;;;;;;;15.90;99.90;;;;;;5050305;28;20233;-67
2022/05/16 07:23:02;;;;;;;;;;;15.90;99.90;;;;;;5057439;28;19965;-67
2022/05/16 07:25:29;;;;;;;;;;;16.00;99.90;;;;;;5054750;28;19916;-67
2022/05/16 07:27:57;;;;;;;;;;;16.10;99.90;;;;;;5036492;28;19925;-67
2022/05/16 07:30:27;;;;;;;;;;;16.20;99.90;;;;;;5052107;28;20288;-67
2022/05/16 07:32:54;;;;;;;;;;;16.40;99.90;;;;;;5055581;28;19916;-67
2022/05/16 07:35:22;;;;;;;;;;;16.50;99.90;;;;;;5060574;28;19925;-66
2022/05/16 07:37:48;;;;;;;;;;;16.50;99.90;;;;;;5062891;28;20951;-67
2022/05/16 07:40:14;;;;;;;;;;;16.70;99.90;;;;;;5040892;28;19965;-67
2022/05/16 07:42:40;;;;;;;;;;;16.80;99.90;;;;;;5044564;28;20355;-67
2022/05/16 07:45:07;;;;;;;;;;;17.00;99.90;;;;;;5054945;28;19924;-67
2022/05/16 07:47:37;;;;;;;;;;;17.10;99.90;;;;;;5057340;28;19916;-66
2022/05/16 07:50:03;;;;;;;;;;;17.20;99.90;;;;;;5041435;28;19916;-67
2022/05/16 07:52:29;;;;;;;;;;;17.30;99.90;;;;;;5061533;28;19966;-66
2022/05/16 07:54:54;;;;;;;;;;;17.40;99.90;;;;;;5054930;28;19924;-67
2022/05/16 07:57:20;;;;;;;;;;;17.50;99.90;;;;;;5066239;28;19916;-67
2022/05/16 07:59:46;;;;;;;;;;;17.60;99.90;;;;;;5057034;28;19916;-67
2022/05/16 08:02:12;;;;;;;;;;;17.70;99.90;;;;;;5060169;28;20015;-66
2022/05/16 08:04:38;;;;;;;;;;;17.80;99.90;;;;;;5053934;28;19928;-67
2022/05/16 08:07:04;;;;;;;;;;;17.90;99.90;;;;;;5062011;28;20285;-67
2022/05/16 08:12:22;;;;;;;;;;;18.20;99.90;;;;;;5042213;28;19939;-67
2022/05/16 08:14:48;;;;;;;;;;;18.30;99.90;;;;;;5050563;28;19974;-67
2022/05/16 08:17:13;;;;;;;;;;;18.50;99.90;;;;;;5053854;28;19916;-66
2022/05/16 08:19:39;;;;;;;;;;;18.60;99.90;;;;;;5057677;28;20318;-66
2022/05/16 08:22:04;;;;;;;;;;;18.80;99.90;;;;;;5061731;28;19916;-67
2022/05/16 08:24:30;;;;;;;;;;;19.00;99.90;;;;;;5048196;28;19969;-66
2022/05/16 08:26:55;;;;;;;;;;;19.10;99.90;;;;;;5053538;28;20371;-66
2022/05/16 08:29:21;;;;;;;;;;;19.10;99.90;;;;;;5047309;28;19925;-66
2022/05/16 08:31:46;;;;;;;;;;;19.10;99.90;;;;;;5047540;28;20277;-66
2022/05/16 08:34:12;;;;;;;;;;;19.20;99.90;;;;;;5049249;28;20435;-66
2022/05/16 08:42:09;;;;;;;;;;;19.30;99.90;;;;;;5046102;28;19920;-66
2022/05/16 08:44:56;;;;;;;;;;;19.30;99.90;;;;;;5059347;28;19939;-66
2022/05/16 08:47:40;;;;;;;;;;;19.30;99.90;;;;;;5055796;28;19923;-67
2022/05/16 08:50:10;;;;;;;;;;;19.40;99.90;;;;;;5057048;28;19923;-66
2022/05/16 08:52:42;;;;;;;;;;;19.40;99.90;;;;;;5046880;28;20552;-66
2022/05/16 08:55:19;;;;;;;;;;;19.50;99.90;;;;;;5050339;28;20007;-66
2022/05/16 08:57:47;;;;;;;;;;;19.70;99.90;;;;;;5037757;28;22336;-66
2022/05/16 09:00:32;;;;;;;;;;;19.90;99.90;;;;;;5045432;28;20314;-66
2022/05/16 09:02:58;;;;;;;;;;;20.00;99.90;;;;;;5045464;28;19921;-66
2022/05/16 09:05:28;;;;;;;;;;;20.00;99.30;;;;;;5057988;28;19917;-67
2022/05/16 09:07:55;;;;;;;;;;;20.20;99.90;;;;;;5052567;28;19923;-66
2022/05/16 09:10:22;;;;;;;;;;;20.30;99.90;;;;;;5056862;28;19916;-66
2022/05/16 09:12:47;;;;;;;;;;;20.40;99.90;;;;;;5044592;28;20353;-70
2022/05/16 09:15:18;;;;;;;;;;;20.50;99.90;;;;;;5059827;28;19955;-67
2022/05/16 09:17:55;;;;;;;;;;;20.60;98.10;;;;;;5067376;28;19917;-67
2022/05/16 09:20:25;;;;;;;;;;;20.70;99.90;;;;;;5066798;28;20387;-66
2022/05/16 09:22:59;;;;;;;;;;;20.90;96.40;;;;;;5066185;28;19916;-66
2022/05/16 09:25:32;;;;;;;;;;;21.00;99.90;;;;;;5060926;28;20011;-67
2022/05/16 09:30:44;;;;;;;;;;;21.30;98.00;;;;;;5044210;28;20408;-66
2022/05/16 09:33:11;;;;;;;;;;;21.50;94.60;;;;;;5042586;28;20047;-66
2022/05/16 09:35:37;;;;;;;;;;;21.60;99.90;;;;;;5058687;28;20126;-66
2022/05/16 09:38:03;;;;;;;;;;;21.70;99.80;;;;;;5049774;28;19916;-66
2022/05/16 09:40:37;;;;;;;;;;;21.80;95.60;;;;;;5063355;28;20424;-67
2022/05/16 09:43:20;;;;;;;;;;;21.80;99.50;;;;;;5052497;28;19923;-66
2022/05/16 09:45:49;;;;;;;;;;;21.90;95.10;;;;;;5053238;28;20018;-67
2022/05/16 09:48:16;;;;;;;;;;;21.90;97.30;;;;;;5064312;28;19924;-67
2022/05/16 09:50:54;;;;;;;;;;;21.90;94.20;;;;;;5061933;28;19916;-67
2022/05/16 09:53:27;;;;;;;;;;;21.90;94.20;;;;;;5063487;28;19920;-66
2022/05/16 09:55:54;;;;;;;;;;;21.80;98.10;;;;;;5064792;28;19920;-67
2022/05/16 09:58:20;;;;;;;;;;;21.90;98.60;;;;;;5065496;28;20344;-66
2022/05/16 10:00:53;;;;;;;;;;;21.90;96.60;;;;;;5066343;28;19935;-66
2022/05/16 10:03:30;;;;;;;;;;;22.00;96.60;;;;;;5064092;28;19920;-66
2022/05/16 10:05:57;;;;;;;;;;;22.10;99.90;;;;;;5071188;28;20466;-66
2022/05/16 10:08:25;;;;;;;;;;;22.10;99.90;;;;;;5068777;28;19919;-66
2022/05/16 10:10:51;;;;;;;;;;;22.20;99.60;;;;;;5065066;28;19958;-66
2022/05/16 10:13:17;;;;;;;;;;;22.30;95.10;;;;;;5053447;28;19999;-66
2022/05/16 10:15:44;;;;;;;;;;;22.50;96.30;;;;;;5060455;28;19920;-66
2022/05/16 10:18:13;;;;;;;;;;;22.60;97.30;;;;;;5055094;28;19948;-66
2022/05/16 10:20:40;;;;;;;;;;;22.80;87.10;;;;;;5028595;28;19928;-66
2022/05/16 10:23:08;;;;;;;;;;;22.80;91.80;;;;;;5065366;28;19928;-66
2022/05/16 10:25:39;;;;;;;;;;;22.90;91.60;;;;;;5051849;28;20007;-66
2022/05/16 10:28:08;;;;;;;;;;;22.90;86.00;;;;;;5052941;28;24183;-65
2022/05/16 10:33:24;;;;;;;;;;;22.80;83.30;;;;;;5045073;28;21572;-66
2022/05/16 10:33:24;;;;;;;;;;;22.80;84.40;;;;;;5045354;28;20930;-66
2022/05/16 10:35:53;;;;;;;;;;;22.70;86.50;;;;;;5052174;28;19938;-66
2022/05/16 10:38:29;;;;;;;;;;;22.60;88.80;;;;;;5064296;28;19950;-66
2022/05/16 10:40:57;;;;;;;;;;;22.50;86.60;;;;;;5059440;28;19916;-66
2022/05/16 10:43:42;;;;;;;;;;;22.40;78.30;;;;;;5047545;28;19920;-66
2022/05/16 10:46:14;;;;;;;;;;;22.40;86.90;;;;;;5047903;28;20417;-66
2022/05/16 10:48:50;;;;;;;;;;;22.40;84.80;;;;;;5059850;28;20313;-65
2022/05/16 10:51:19;;;;;;;;;;;22.30;87.50;;;;;;5062786;28;19920;-66
2022/05/16 10:53:45;;;;;;;;;;;22.30;92.90;;;;;;5057898;28;19927;-66
2022/05/16 10:56:14;;;;;;;;;;;22.30;91.30;;;;;;5057727;28;19920;-65
2022/05/16 10:58:48;;;;;;;;;;;22.30;95.90;;;;;;5033478;28;20924;-66
2022/05/16 11:01:28;;;;;;;;;;;22.40;96.80;;;;;;5041683;28;19947;-68
2022/05/16 11:04:13;;;;;;;;;;;22.50;98.20;;;;;;5051100;28;19928;-68
2022/05/16 11:07:11;;;;;;;;;;;22.40;97.20;;;;;;5043805;28;20074;-69
2022/05/16 11:09:46;;;;;;;;;;;22.60;96.50;;;;;;5017844;28;19936;-68
2022/05/16 11:12:12;;;;;;;;;;;22.60;96.50;;;;;;5050793;28;19959;-68
2022/05/16 11:14:56;;;;;;;;;;;22.80;95.40;;;;;;5059498;28;19956;-68
2022/05/16 11:17:32;;;;;;;;;;;22.90;94.50;;;;;;5061185;28;19970;-68
2022/05/16 11:20:05;;;;;;;;;;;23.00;93.40;;;;;;5061815;28;19979;-68
2022/05/16 11:22:52;;;;;;;;;;;23.20;93.30;;;;;;5061739;28;19920;-68
2022/05/16 11:25:41;;;;;;;;;;;23.50;84.80;;;;;;5051368;28;19926;-68
2022/05/16 11:28:14;;;;;;;;;;;23.70;86.00;;;;;;5033180;28;19916;-68
2022/05/16 11:30:53;;;;;;;;;;;23.90;78.70;;;;;;5060681;28;19924;-68
2022/05/16 11:33:19;;;;;;;;;;;24.10;77.50;;;;;;5056494;28;20326;-68
2022/05/16 11:35:46;;;;;;;;;;;24.10;73.00;;;;;;5062569;28;19924;-68
2022/05/16 11:38:14;;;;;;;;;;;24.10;69.80;;;;;;5062197;28;19927;-68
2022/05/16 11:40:46;;;;;;;;;;;24.00;77.90;;;;;;5048916;28;19932;-68
2022/05/16 11:43:12;;;;;;;;;;;24.00;76.10;;;;;;5056880;28;20320;-68
2022/05/16 11:45:57;;;;;;;;;;;23.90;77.50;;;;;;5061439;28;19920;-68
2022/05/16 11:48:23;;;;;;;;;;;23.80;84.70;;;;;;5062132;28;20770;-68
2022/05/16 11:51:07;;;;;;;;;;;23.60;79.60;;;;;;5060728;28;20023;-68
2022/05/16 11:53:38;;;;;;;;;;;23.50;81.00;;;;;;5055115;28;19920;-68
2022/05/16 12:01:34;;;;;;;;;;;23.20;92.20;;;;;;5053196;28;19951;-68
2022/05/16 12:04:24;;;;;;;;;;;23.10;95.30;;;;;;5043384;28;19928;-69
2022/05/16 12:06:53;;;;;;;;;;;23.00;94.40;;;;;;5043268;28;20353;-69
2022/05/16 12:09:19;;;;;;;;;;;23.00;96.70;;;;;;5045359;28;19924;-69
2022/05/16 12:12:07;;;;;;;;;;;23.00;97.00;;;;;;5050407;28;19931;-68
2022/05/16 12:14:36;;;;;;;;;;;23.10;96.80;;;;;;5047505;28;19932;-68
2022/05/16 12:17:07;;;;;;;;;;;23.10;96.30;;;;;;5050766;28;20380;-68
2022/05/16 12:19:34;;;;;;;;;;;23.10;95.10;;;;;;5059346;28;20459;-68
2022/05/16 12:22:03;;;;;;;;;;;23.20;94.90;;;;;;5062135;28;20053;-68
2022/05/16 12:24:30;;;;;;;;;;;23.20;94.50;;;;;;5040365;28;24487;-68
2022/05/16 12:27:01;;;;;;;;;;;23.20;92.40;;;;;;5059354;28;19920;-68
2022/05/16 12:29:37;;;;;;;;;;;23.20;94.00;;;;;;5035065;28;21014;-68
2022/05/16 12:32:06;;;;;;;;;;;23.20;92.10;;;;;;5054726;28;20290;-69
2022/05/16 12:34:40;;;;;;;;;;;23.10;92.50;;;;;;5051644;28;20319;-68
2022/05/16 12:37:09;;;;;;;;;;;23.10;94.20;;;;;;5060607;28;19927;-68
2022/05/16 12:39:38;;;;;;;;;;;23.10;94.10;;;;;;5058390;28;19924;-68
2022/05/16 12:42:10;;;;;;;;;;;23.10;95.60;;;;;;5053860;28;20380;-68
2022/05/16 12:44:53;;;;;;;;;;;23.10;95.60;;;;;;5056456;28;19920;-68
2022/05/16 12:47:38;;;;;;;;;;;23.20;97.50;;;;;;5065844;28;19920;-68
2022/05/16 12:50:16;;;;;;;;;;;23.20;95.50;;;;;;5045343;28;19963;-68
2022/05/16 12:53:02;;;;;;;;;;;23.20;96.90;;;;;;5063935;28;20003;-68
2022/05/16 12:55:31;;;;;;;;;;;23.20;95.80;;;;;;4997419;28;19945;-68
2022/05/16 12:58:35;;;;;;;;;;;23.30;95.60;;;;;;5052804;28;19927;-68
2022/05/16 13:01:04;;;;;;;;;;;23.40;97.60;;;;;;5014568;28;20050;-68
2022/05/16 13:03:45;;;;;;;;;;;23.40;94.40;;;;;;4998659;28;21832;-68
2022/05/16 13:06:24;;;;;;;;;;;23.50;92.60;;;;;;5044765;28;19925;-68
2022/05/16 13:08:56;;;;;;;;;;;23.50;92.40;;;;;;5064174;28;20441;-68
2022/05/16 13:11:26;;;;;;;;;;;23.50;92.60;;;;;;5058802;28;19931;-68
2022/05/16 13:14:07;;;;;;;;;;;23.50;93.00;;;;;;5059882;28;19920;-68
2022/05/16 13:16:52;;;;;;;;;;;23.60;93.90;;;;;;5064685;28;19916;-68
2022/05/16 13:19:18;;;;;;;;;;;23.60;94.80;;;;;;5061210;28;19924;-69
2022/05/16 13:22:04;;;;;;;;;;;23.70;94.60;;;;;;5051765;28;24460;-69
2022/05/16 13:24:29;;;;;;;;;;;23.80;93.70;;;;;;5064937;28;19921;-68
2022/05/16 13:29:40;;;;;;;;;;;24.00;91.50;;;;;;5046859;28;22970;-68
2022/05/16 13:32:08;;;;;;;;;;;24.00;91.30;;;;;;5054016;28;19955;-68
2022/05/16 13:34:35;;;;;;;;;;;24.20;91.60;;;;;;5061051;28;19932;-68
2022/05/16 13:37:04;;;;;;;;;;;24.30;92.50;;;;;;5059760;28;20399;-68
2022/05/16 13:39:33;;;;;;;;;;;24.50;90.10;;;;;;5062273;28;19978;-68
2022/05/16 13:42:00;;;;;;;;;;;24.60;88.30;;;;;;5046772;28;20654;-68
2022/05/16 13:44:33;;;;;;;;;;;24.80;91.50;;;;;;5058611;28;19916;-68
2022/05/16 13:47:03;;;;;;;;;;;24.90;87.20;;;;;;5061859;28;19965;-68
2022/05/16 13:49:29;;;;;;;;;;;25.00;82.90;;;;;;5046519;28;20416;-69
2022/05/16 13:51:55;;;;;;;;;;;25.10;90.20;;;;;;5064685;28;19960;-68
2022/05/16 13:54:26;;;;;;;;;;;25.20;80.10;;;;;;5062056;28;20110;-68
2022/05/16 13:56:55;;;;;;;;;;;25.10;79.80;;;;;;5061761;28;19977;-69
2022/05/16 13:59:22;;;;;;;;;;;25.00;83.60;;;;;;5041114;28;21503;-68
2022/05/16 14:01:50;;;;;;;;;;;24.90;85.80;;;;;;5056417;28;20264;-68
2022/05/16 14:04:18;;;;;;;;;;;24.70;86.30;;;;;;5048464;28;20454;-69
2022/05/16 14:06:47;;;;;;;;;;;24.60;90.10;;;;;;5039563;28;20200;-69
2022/05/16 14:09:21;;;;;;;;;;;24.60;92.50;;;;;;5046562;28;24635;-69
2022/05/16 14:11:47;;;;;;;;;;;24.60;94.10;;;;;;5046281;28;20394;-68
2022/05/16 14:14:15;;;;;;;;;;;24.60;94.20;;;;;;5054753;28;20381;-68
2022/05/16 14:16:42;;;;;;;;;;;24.70;97.40;;;;;;5060462;28;19975;-68
2022/05/16 14:19:12;;;;;;;;;;;24.50;98.50;;;;;;5057423;28;20076;-68
2022/05/16 14:21:45;;;;;;;;;;;24.30;99.90;;;;;;5044610;28;20312;-67
2022/05/16 14:24:11;;;;;;;;;;;24.10;99.90;;;;;;5051299;28;20030;-68
2022/05/16 14:26:40;;;;;;;;;;;23.80;99.90;;;;;;5058118;28;20198;-68
2022/05/16 14:29:17;;;;;;;;;;;23.50;99.90;;;;;;5056888;28;19943;-68
2022/05/16 14:31:51;;;;;;;;;;;23.50;99.90;;;;;;5042457;28;26630;-68
2022/05/16 14:34:36;;;;;;;;;;;23.40;99.90;;;;;;5046172;28;21351;-68
2022/05/16 14:37:23;;;;;;;;;;;23.20;99.90;;;;;;5048701;28;19924;-68
2022/05/16 14:40:01;;;;;;;;;;;23.00;99.90;;;;;;5062659;28;19939;-68
2022/05/16 14:42:27;;;;;;;;;;;22.90;99.90;;;;;;5056195;28;20282;-68
2022/05/16 14:44:54;;;;;;;;;;;22.80;99.90;;;;;;5052743;28;19966;-68
2022/05/16 14:47:23;;;;;;;;;;;22.70;99.90;;;;;;5066865;28;20039;-68
2022/05/16 14:49:49;;;;;;;;;;;22.60;99.90;;;;;;5065001;28;19925;-68
2022/05/16 14:52:19;;;;;;;;;;;22.40;99.90;;;;;;5056825;28;19915;-68
2022/05/16 14:54:51;;;;;;;;;;;22.30;99.90;;;;;;5060485;28;20340;-68
2022/05/16 14:57:17;;;;;;;;;;;22.10;99.90;;;;;;5068177;28;19920;-68
2022/05/16 14:59:43;;;;;;;;;;;21.90;99.90;;;;;;5053061;28;19927;-67
2022/05/16 15:04:54;;;;;;;;;;;21.70;99.90;;;;;;5068132;28;19981;-67
2022/05/16 15:07:20;;;;;;;;;;;21.40;99.90;;;;;;5051314;28;19924;-67
2022/05/16 15:09:46;;;;;;;;;;;21.20;99.90;;;;;;5060454;28;19923;-67
2022/05/16 15:12:12;;;;;;;;;;;21.00;99.90;;;;;;5050154;28;24634;-67
2022/05/16 15:14:39;;;;;;;;;;;20.80;99.90;;;;;;5048662;28;20522;-68
2022/05/16 15:17:06;;;;;;;;;;;20.50;99.90;;;;;;5057268;28;19917;-67
2022/05/16 15:19:32;;;;;;;;;;;20.40;99.90;;;;;;5059468;28;24912;-68
2022/05/16 15:21:58;;;;;;;;;;;20.30;99.90;;;;;;5063368;28;19920;-68
2022/05/16 15:24:37;;;;;;;;;;;20.20;99.90;;;;;;5065385;28;20315;-67
2022/05/16 15:27:04;;;;;;;;;;;20.10;99.90;;;;;;5065689;28;20290;-67
2022/05/16 15:29:29;;;;;;;;;;;20.00;99.90;;;;;;5061662;28;20365;-68
2022/05/16 15:31:55;;;;;;;;;;;19.90;99.90;;;;;;5059268;28;20010;-69
2022/05/16 15:34:21;;;;;;;;;;;19.80;99.90;;;;;;5067083;28;20375;-67
2022/05/16 15:36:46;;;;;;;;;;;19.80;99.90;;;;;;5056083;28;19939;-67
2022/05/16 15:39:22;;;;;;;;;;;19.70;99.90;;;;;;5053600;28;22670;-68
2022/05/16 15:41:48;;;;;;;;;;;19.70;99.90;;;;;;5055224;28;19924;-68
2022/05/16 15:44:14;;;;;;;;;;;19.70;99.90;;;;;;5058553;28;20379;-68
2022/05/16 15:46:40;;;;;;;;;;;19.60;99.90;;;;;;5061393;28;19924;-68
2022/05/16 15:49:06;;;;;;;;;;;19.60;99.90;;;;;;5050977;28;19920;-68
2022/05/16 15:51:34;;;;;;;;;;;19.60;99.90;;;;;;5055880;28;20393;-69
2022/05/16 15:54:01;;;;;;;;;;;19.50;99.90;;;;;;5057331;28;20055;-68
2022/05/16 15:56:27;;;;;;;;;;;19.50;99.90;;;;;;5063043;28;19973;-68
2022/05/16 15:58:52;;;;;;;;;;;19.40;99.90;;;;;;5045397;28;20401;-69
2022/05/16 16:01:18;;;;;;;;;;;19.30;99.90;;;;;;5017719;28;20759;-67
2022/05/16 16:09:12;;;;;;;;;;;19.30;99.90;;;;;;5056837;28;20317;-68